Terminal Aerodrome Forecast
Issued by NWS Greer, SC

Home | Current Version | Previous Version | Text Only | Print | Product List | Glossary On
Versions: 1 2 3 4 5 6 7 8 9 10 11 12 13 14 15 16
000
FTUS42 KGSP 262339
TAFAVL
TAF
KAVL 262339Z 2700/2724 18003KT 4SM SHRA BR FEW006 OVC060
     FM270200 00000KT 6SM BR VCSH SCT006 OVC060
      TEMPO 2704/2707 2SM BR BKN006 OVC015
     FM270700 VRB02KT 2SM BR VCSH SCT005 OVC015
     FM271000 VRB02KT 1SM BR SCT003 OVC008
     FM271400 33006KT P6SM BKN080 PROB30 2716/2718 4SM -TSRA
      OVC025CB
     FM271800 32005KT 6SM -SHRA VCTS BKN050CB=

USA.gov is the U.S. government's official web portal to all federal, state and local government web resources and services.